createdAt,value
2023-01-29T00:02:57.079Z,12.40
2023-01-29T00:06:06.688Z,10.90
2023-01-29T00:09:11.436Z,13.00
2023-01-29T00:12:15.368Z,11.30
2023-01-29T00:15:20.732Z,11.70
2023-01-29T00:18:25.629Z,10.90
2023-01-29T00:21:31.137Z,9.50
2023-01-29T00:24:35.323Z,10.40
2023-01-29T00:27:39.339Z,10.70
2023-01-29T00:30:43.354Z,7.70
2023-01-29T00:33:48.613Z,9.00
2023-01-29T00:36:52.590Z,7.20
2023-01-29T00:39:56.881Z,8.50
2023-01-29T00:43:19.457Z,8.50
2023-01-29T00:46:23.540Z,6.50
2023-01-29T00:49:27.909Z,7.50
2023-01-29T00:52:33.377Z,5.60
2023-01-29T00:55:37.272Z,6.80
2023-01-29T00:58:41.824Z,4.60
2023-01-29T01:02:04.620Z,7.30
2023-01-29T01:05:14.207Z,6.40
2023-01-29T01:08:36.760Z,5.40
2023-01-29T01:14:44.596Z,4.80
2023-01-29T01:17:55.782Z,9.60
2023-01-29T01:20:59.771Z,7.50
2023-01-29T01:24:05.878Z,6.30
2023-01-29T01:27:09.852Z,7.80
2023-01-29T01:30:16.576Z,6.00
2023-01-29T01:33:20.807Z,11.40
2023-01-29T01:36:24.738Z,10.30
2023-01-29T01:39:28.693Z,9.80
2023-01-29T01:42:33.854Z,11.00
2023-01-29T01:45:40.745Z,9.00
2023-01-29T01:48:49.130Z,10.20
2023-01-29T01:51:53.367Z,10.60
2023-01-29T01:54:58.921Z,10.10
2023-01-29T01:58:26.486Z,6.60
2023-01-29T02:01:30.500Z,8.70
2023-01-29T02:04:53.362Z,7.80
2023-01-29T02:08:17.670Z,7.00
2023-01-29T02:11:22.411Z,5.10
2023-01-29T02:14:26.911Z,7.20
2023-01-29T02:17:32.053Z,9.90
2023-01-29T02:20:38.226Z,9.60
2023-01-29T02:24:11.474Z,7.20
2023-01-29T02:27:21.736Z,5.40
2023-01-29T02:30:30.810Z,9.80
2023-01-29T02:34:04.732Z,6.40
2023-01-29T02:37:11.226Z,8.00
2023-01-29T02:40:25.700Z,6.20
2023-01-29T02:43:32.574Z,6.40
2023-01-29T02:46:51.314Z,6.50
2023-01-29T02:50:03.728Z,6.30
2023-01-29T02:53:21.462Z,5.60
2023-01-29T02:56:53.226Z,6.90
2023-01-29T03:00:13.592Z,10.20
2023-01-29T03:03:26.864Z,7.50
2023-01-29T03:06:35.281Z,7.10
2023-01-29T03:09:50.219Z,8.60
2023-01-29T03:13:05.634Z,7.40
2023-01-29T03:16:28.220Z,7.90
2023-01-29T03:19:39.883Z,6.90
2023-01-29T03:22:56.966Z,8.00
2023-01-29T03:26:19.863Z,9.50
2023-01-29T03:29:43.443Z,7.80
2023-01-29T03:32:52.266Z,8.10
2023-01-29T03:36:02.621Z,6.90
2023-01-29T03:39:11.587Z,7.60
2023-01-29T03:42:46.601Z,8.50
2023-01-29T03:45:57.948Z,7.90
2023-01-29T03:49:32.366Z,6.70
2023-01-29T03:52:55.886Z,8.50
2023-01-29T03:56:10.234Z,5.90
2023-01-29T03:59:22.870Z,9.70
2023-01-29T04:03:18.094Z,9.00
2023-01-29T04:06:28.199Z,6.30
2023-01-29T04:10:05.648Z,8.10
2023-01-29T04:13:14.271Z,10.90
2023-01-29T04:16:35.445Z,7.10
2023-01-29T04:20:01.509Z,7.60
2023-01-29T04:23:19.786Z,8.90
2023-01-29T04:26:51.226Z,7.50
2023-01-29T04:30:12.847Z,11.40
2023-01-29T04:33:34.866Z,11.60
2023-01-29T04:36:52.828Z,10.70
2023-01-29T04:40:09.815Z,12.60
2023-01-29T04:43:34.557Z,10.80
2023-01-29T04:46:50.663Z,8.30
2023-01-29T04:50:19.484Z,9.20
2023-01-29T04:53:37.396Z,8.00
2023-01-29T04:57:10.603Z,10.90
2023-01-29T05:00:21.381Z,9.20
2023-01-29T05:06:32.777Z,8.70
2023-01-29T05:09:38.842Z,7.50
2023-01-29T05:12:47.162Z,9.40
2023-01-29T05:16:02.974Z,8.90
2023-01-29T05:19:07.477Z,6.70
2023-01-29T05:22:13.951Z,9.30
2023-01-29T05:25:25.139Z,9.00
2023-01-29T05:28:29.249Z,7.60
2023-01-29T05:31:33.208Z,7.40
2023-01-29T05:34:37.239Z,8.70
2023-01-29T05:37:41.307Z,10.40
2023-01-29T05:40:45.995Z,9.00
2023-01-29T05:43:49.951Z,8.10
2023-01-29T05:46:54.046Z,6.60
2023-01-29T05:49:58.003Z,10.70
2023-01-29T05:53:02.601Z,10.80
2023-01-29T05:56:06.733Z,9.80
2023-01-29T05:59:10.747Z,11.30
2023-01-29T06:02:14.763Z,11.30
2023-01-29T06:05:18.818Z,12.30
2023-01-29T06:08:22.793Z,10.70
2023-01-29T06:11:26.811Z,11.70
2023-01-29T06:14:30.727Z,12.00
2023-01-29T06:17:34.683Z,7.90
2023-01-29T06:20:39.332Z,8.20
2023-01-29T06:23:43.286Z,10.30
2023-01-29T06:26:47.276Z,12.30
2023-01-29T06:29:51.186Z,8.50
2023-01-29T06:32:58.947Z,8.80
2023-01-29T06:36:04.747Z,11.10
2023-01-29T06:39:08.765Z,12.00
2023-01-29T06:42:12.801Z,11.80
2023-01-29T06:45:16.927Z,10.90
2023-01-29T06:48:21.604Z,8.50
2023-01-29T06:51:25.671Z,9.30
2023-01-29T06:54:29.713Z,10.30
2023-01-29T06:57:33.695Z,11.40
2023-01-29T07:00:38.627Z,9.80
2023-01-29T07:03:43.589Z,9.80
2023-01-29T07:06:47.571Z,10.00
2023-01-29T07:09:51.515Z,9.60
2023-01-29T07:12:55.529Z,13.00
2023-01-29T07:16:06.244Z,13.60
2023-01-29T07:22:14.418Z,6.50
2023-01-29T07:25:18.325Z,9.90
2023-01-29T07:28:23.055Z,10.60
2023-01-29T07:31:27.178Z,11.40
2023-01-29T07:34:31.268Z,11.00
2023-01-29T07:37:35.194Z,16.20
2023-01-29T07:40:39.181Z,14.80
2023-01-29T07:43:43.251Z,17.20
2023-01-29T07:46:47.164Z,10.60
2023-01-29T07:49:51.056Z,8.50
2023-01-29T07:52:55.194Z,13.40
2023-01-29T07:55:59.212Z,11.70
2023-01-29T07:59:03.431Z,11.20
2023-01-29T08:02:09.376Z,10.60
2023-01-29T08:05:13.385Z,9.40
2023-01-29T08:08:17.276Z,10.60
2023-01-29T08:11:21.236Z,10.20
2023-01-29T08:14:25.143Z,9.30
2023-01-29T08:17:29.052Z,9.40
2023-01-29T08:20:33.764Z,9.60
2023-01-29T08:23:37.668Z,8.60
2023-01-29T08:26:41.621Z,10.80
2023-01-29T08:29:45.524Z,9.90
2023-01-29T08:32:49.472Z,11.90
2023-01-29T08:35:53.695Z,12.30
2023-01-29T08:38:57.783Z,10.00
2023-01-29T08:42:01.684Z,9.40
2023-01-29T08:45:06.704Z,10.00
2023-01-29T08:48:11.161Z,11.10
2023-01-29T08:51:15.181Z,14.70
2023-01-29T08:54:19.080Z,9.70
2023-01-29T08:57:23.020Z,13.00
2023-01-29T09:00:26.976Z,10.30
2023-01-29T09:03:30.984Z,11.60
2023-01-29T09:06:35.256Z,15.60
2023-01-29T09:09:39.155Z,10.50
2023-01-29T09:12:43.187Z,13.00
2023-01-29T09:15:47.200Z,10.30
2023-01-29T09:18:52.756Z,10.90
2023-01-29T09:21:56.647Z,11.60
2023-01-29T09:25:00.579Z,10.70
2023-01-29T09:28:04.889Z,9.10
2023-01-29T09:31:08.848Z,11.60
2023-01-29T09:34:12.830Z,13.30
2023-01-29T09:37:17.872Z,12.60
2023-01-29T09:40:28.970Z,13.80
2023-01-29T09:43:45.978Z,15.70
2023-01-29T09:46:54.084Z,9.00
2023-01-29T09:50:05.721Z,13.70
2023-01-29T09:53:20.025Z,14.60
2023-01-29T09:56:29.197Z,12.10
2023-01-29T09:59:33.164Z,13.30
2023-01-29T10:02:43.359Z,10.80
2023-01-29T10:06:12.257Z,16.50
2023-01-29T10:09:44.333Z,11.20
2023-01-29T10:13:19.539Z,12.90
2023-01-29T10:16:45.473Z,16.60
2023-01-29T10:20:31.397Z,12.80
2023-01-29T10:23:44.207Z,12.80
2023-01-29T10:26:49.682Z,12.60
2023-01-29T10:29:55.527Z,9.40
2023-01-29T10:33:03.513Z,7.70
2023-01-29T10:36:13.248Z,14.20
2023-01-29T10:39:22.684Z,12.80
2023-01-29T10:42:35.555Z,11.60
2023-01-29T10:45:50.117Z,10.80
2023-01-29T10:49:08.771Z,14.00
2023-01-29T10:52:28.048Z,12.00
2023-01-29T10:55:42.712Z,10.40
2023-01-29T10:58:54.466Z,12.90
2023-01-29T11:02:00.355Z,14.60
2023-01-29T11:05:15.486Z,9.10
2023-01-29T11:08:28.451Z,12.70
2023-01-29T11:11:47.850Z,13.10
2023-01-29T11:14:57.282Z,13.80
2023-01-29T11:18:16.288Z,13.50
2023-01-29T11:21:20.684Z,14.00
2023-01-29T11:24:25.794Z,14.10
2023-01-29T11:27:35.450Z,21.40
2023-01-29T11:30:41.370Z,15.50
2023-01-29T11:33:46.528Z,15.80
2023-01-29T11:36:59.401Z,12.00
2023-01-29T11:40:35.004Z,11.10
2023-01-29T11:43:38.970Z,13.30
2023-01-29T11:46:43.028Z,14.20
2023-01-29T11:49:53.858Z,10.80
2023-01-29T11:53:01.771Z,12.90
2023-01-29T11:56:27.803Z,15.50
2023-01-29T11:59:50.022Z,15.60
2023-01-29T12:02:57.849Z,10.10
2023-01-29T12:06:21.932Z,13.50
2023-01-29T12:09:28.329Z,14.50
2023-01-29T12:12:42.454Z,15.50
2023-01-29T12:15:48.121Z,14.70
2023-01-29T12:19:04.623Z,12.60
2023-01-29T12:22:25.021Z,13.90
2023-01-29T12:25:53.461Z,14.00
2023-01-29T12:29:20.421Z,19.40
2023-01-29T12:32:39.730Z,21.10
2023-01-29T12:35:50.177Z,16.70
2023-01-29T12:38:55.430Z,18.40
2023-01-29T12:42:05.210Z,14.40
2023-01-29T12:45:10.965Z,15.70
2023-01-29T12:48:23.530Z,19.10
2023-01-29T12:52:00.870Z,14.90
2023-01-29T12:55:26.404Z,11.10
2023-01-29T12:58:38.171Z,18.10
2023-01-29T13:02:12.405Z,14.80
2023-01-29T13:08:23.526Z,17.80
2023-01-29T13:11:41.457Z,17.00
2023-01-29T13:14:56.530Z,16.80
2023-01-29T13:18:36.800Z,20.10
2023-01-29T13:21:43.896Z,18.20
2023-01-29T13:25:02.314Z,18.50
2023-01-29T13:28:17.921Z,18.40
2023-01-29T13:31:29.714Z,18.40
2023-01-29T13:34:45.067Z,17.60
2023-01-29T13:37:54.530Z,16.40
2023-01-29T13:41:04.881Z,20.90
2023-01-29T13:44:21.415Z,21.00
2023-01-29T13:50:38.881Z,19.20
2023-01-29T13:53:44.292Z,20.90
2023-01-29T13:57:00.219Z,25.20
2023-01-29T14:00:06.070Z,25.30
2023-01-29T14:03:11.940Z,20.70
2023-01-29T14:06:38.500Z,22.00
2023-01-29T14:09:42.493Z,19.00
2023-01-29T14:12:48.361Z,21.90
2023-01-29T14:16:18.724Z,22.30
2023-01-29T14:19:24.473Z,19.00
2023-01-29T14:22:30.403Z,21.10
2023-01-29T14:25:38.007Z,21.50
2023-01-29T14:28:43.047Z,20.00
2023-01-29T14:32:11.946Z,27.10
2023-01-29T14:35:18.911Z,19.50
2023-01-29T14:38:26.734Z,21.50
2023-01-29T14:41:33.493Z,17.00
2023-01-29T14:45:06.436Z,29.50
2023-01-29T14:48:10.505Z,25.20
2023-01-29T14:51:16.754Z,24.00
2023-01-29T14:54:28.080Z,21.80
2023-01-29T14:57:33.147Z,24.60
2023-01-29T15:03:52.532Z,22.90
2023-01-29T15:07:06.609Z,21.70
2023-01-29T15:10:43.763Z,19.80
2023-01-29T15:13:53.546Z,22.10
2023-01-29T15:17:10.245Z,29.90
2023-01-29T15:20:38.204Z,25.50
2023-01-29T15:23:44.273Z,26.70
2023-01-29T15:26:48.412Z,22.10
2023-01-29T15:30:00.096Z,20.30
2023-01-29T15:33:04.755Z,24.00
2023-01-29T15:36:19.274Z,22.40
2023-01-29T15:39:25.529Z,22.30
2023-01-29T15:42:44.708Z,20.30
2023-01-29T15:45:50.301Z,26.90
2023-01-29T15:48:57.304Z,22.10
2023-01-29T15:52:07.820Z,23.30
2023-01-29T15:55:15.126Z,21.90
2023-01-29T15:58:28.342Z,21.20
2023-01-29T16:01:32.673Z,18.70
2023-01-29T16:04:36.786Z,18.30
2023-01-29T16:07:42.282Z,20.00
2023-01-29T16:10:50.177Z,20.00
2023-01-29T16:13:57.436Z,23.60
2023-01-29T16:17:35.562Z,19.40
2023-01-29T16:20:45.605Z,21.80
2023-01-29T16:23:52.283Z,23.50
2023-01-29T16:27:02.551Z,21.00
2023-01-29T16:30:07.604Z,19.90
2023-01-29T16:33:15.084Z,24.10
2023-01-29T16:36:21.883Z,27.70
2023-01-29T16:39:38.550Z,23.10
2023-01-29T16:42:42.596Z,22.90
2023-01-29T16:46:25.303Z,26.00
2023-01-29T16:49:29.209Z,25.30
2023-01-29T16:52:34.791Z,23.40
2023-01-29T16:55:41.768Z,25.40
2023-01-29T16:58:50.783Z,32.10
2023-01-29T17:01:56.032Z,20.20
2023-01-29T17:05:08.514Z,21.40
2023-01-29T17:08:33.772Z,21.60
2023-01-29T17:11:41.795Z,27.20
2023-01-29T17:14:57.800Z,20.70
2023-01-29T17:18:02.419Z,28.30
2023-01-29T17:24:10.232Z,23.30
2023-01-29T17:27:19.986Z,20.10
2023-01-29T17:30:28.735Z,31.60
2023-01-29T17:33:33.661Z,28.30
2023-01-29T17:36:37.663Z,27.30
2023-01-29T17:39:42.815Z,25.00
2023-01-29T17:42:47.203Z,24.40
2023-01-29T17:45:51.577Z,24.00
2023-01-29T17:48:55.770Z,28.20
2023-01-29T17:52:00.187Z,21.50
2023-01-29T17:55:04.983Z,25.40
2023-01-29T18:01:20.006Z,27.80
2023-01-29T18:04:24.238Z,22.60
2023-01-29T18:07:28.263Z,22.80
2023-01-29T18:10:32.168Z,23.10
2023-01-29T18:13:36.342Z,24.10
2023-01-29T18:16:42.039Z,24.90
2023-01-29T18:19:46.067Z,21.00
2023-01-29T18:22:50.596Z,20.60
2023-01-29T18:25:57.688Z,30.30
2023-01-29T18:29:01.699Z,25.10
2023-01-29T18:32:06.022Z,25.70
2023-01-29T18:35:10.238Z,25.30
2023-01-29T18:38:14.263Z,24.90
2023-01-29T18:41:18.274Z,28.40
2023-01-29T18:44:22.190Z,25.60
2023-01-29T18:47:26.203Z,31.90
2023-01-29T18:50:30.169Z,29.30
2023-01-29T18:53:34.123Z,38.60
2023-01-29T18:56:38.151Z,27.90
2023-01-29T19:00:02.934Z,32.90
2023-01-29T19:06:11.829Z,27.20
2023-01-29T19:09:16.333Z,27.90
2023-01-29T19:12:21.273Z,25.50
2023-01-29T19:15:25.502Z,33.00
2023-01-29T19:18:29.504Z,34.60
2023-01-29T19:21:35.985Z,32.00
2023-01-29T19:24:41.131Z,32.10
2023-01-29T19:27:45.972Z,31.50
2023-01-29T19:30:50.123Z,33.50
2023-01-29T19:33:54.873Z,28.40
2023-01-29T19:40:02.664Z,31.70
2023-01-29T19:43:06.745Z,29.20
2023-01-29T19:46:10.715Z,30.90
2023-01-29T19:49:14.649Z,35.00
2023-01-29T19:52:49.724Z,31.40
2023-01-29T19:56:00.208Z,35.50
2023-01-29T19:59:05.235Z,28.80
2023-01-29T20:02:09.830Z,30.10
2023-01-29T20:08:18.511Z,25.10
2023-01-29T20:11:23.958Z,28.00
2023-01-29T20:14:27.973Z,29.60
2023-01-29T20:17:31.986Z,29.10
2023-01-29T20:20:39.789Z,36.80
2023-01-29T20:23:45.876Z,33.90
2023-01-29T20:26:50.456Z,32.70
2023-01-29T20:29:54.393Z,29.20
2023-01-29T20:32:58.706Z,35.20
2023-01-29T20:36:05.976Z,29.70
2023-01-29T20:39:09.898Z,29.20
2023-01-29T20:42:14.154Z,30.20
2023-01-29T20:45:18.160Z,30.00
2023-01-29T20:48:22.367Z,36.60
2023-01-29T20:51:26.396Z,31.60
2023-01-29T20:54:33.195Z,30.30
2023-01-29T20:57:38.437Z,28.50
2023-01-29T21:00:42.539Z,26.80
2023-01-29T21:03:47.570Z,28.80
2023-01-29T21:06:51.471Z,30.90
2023-01-29T21:09:55.419Z,33.60
2023-01-29T21:12:59.336Z,32.70
2023-01-29T21:16:03.948Z,35.50
2023-01-29T21:19:09.332Z,28.60
2023-01-29T21:22:13.413Z,31.60
2023-01-29T21:25:20.204Z,29.00
2023-01-29T21:28:24.155Z,29.60
2023-01-29T21:31:28.141Z,30.60
2023-01-29T21:34:32.080Z,29.80
2023-01-29T21:37:38.008Z,23.60
2023-01-29T21:40:41.960Z,31.00
2023-01-29T21:43:45.927Z,30.20
2023-01-29T21:46:49.884Z,27.80
2023-01-29T21:49:53.853Z,27.70
2023-01-29T21:52:57.971Z,27.50
2023-01-29T21:56:04.137Z,27.30
2023-01-29T21:59:09.076Z,24.10
2023-01-29T22:05:20.372Z,25.20
2023-01-29T22:08:24.406Z,27.70
2023-01-29T22:11:28.718Z,28.90
2023-01-29T22:14:32.740Z,37.30
2023-01-29T22:17:38.578Z,28.10
2023-01-29T22:20:42.469Z,27.60
2023-01-29T22:23:49.528Z,28.20
2023-01-29T22:26:53.517Z,28.60
2023-01-29T22:29:57.523Z,25.10
2023-01-29T22:33:01.932Z,24.60
2023-01-29T22:36:06.843Z,28.20
2023-01-29T22:39:10.902Z,29.00
2023-01-29T22:42:14.796Z,29.80
2023-01-29T22:45:18.881Z,29.90
2023-01-29T22:48:23.767Z,28.40
2023-01-29T22:51:27.785Z,24.60
2023-01-29T22:54:31.676Z,28.30
2023-01-29T22:57:36.989Z,26.80
2023-01-29T23:00:40.918Z,24.60
2023-01-29T23:03:44.856Z,23.30
2023-01-29T23:06:48.764Z,24.70
2023-01-29T23:09:52.699Z,31.90
2023-01-29T23:12:56.677Z,23.50
2023-01-29T23:16:00.859Z,26.20
2023-01-29T23:19:05.456Z,23.60
2023-01-29T23:22:09.358Z,24.60
2023-01-29T23:25:13.794Z,26.80
2023-01-29T23:28:17.665Z,22.30
2023-01-29T23:31:22.144Z,20.80
2023-01-29T23:34:26.155Z,23.60
2023-01-29T23:37:30.135Z,24.90
2023-01-29T23:40:34.197Z,24.10
2023-01-29T23:43:38.145Z,22.90
2023-01-29T23:46:42.106Z,20.20
2023-01-29T23:49:46.230Z,19.00
2023-01-29T23:52:50.124Z,20.00
2023-01-29T23:55:59.519Z,17.40
2023-01-29T23:59:03.482Z,19.30
